createdAt,value
2023-01-20T00:00:21.383Z,0.36
2023-01-20T00:01:21.290Z,0.36
2023-01-20T00:02:21.452Z,0.37
2023-01-20T00:03:21.278Z,0.39
2023-01-20T00:04:21.246Z,0.34
2023-01-20T00:05:21.231Z,0.31
2023-01-20T00:06:21.239Z,0.29
2023-01-20T00:07:21.233Z,0.29
2023-01-20T00:08:21.195Z,0.28
2023-01-20T00:09:21.188Z,0.29
2023-01-20T00:10:21.168Z,0.23
2023-01-20T00:11:21.157Z,0.22
2023-01-20T00:12:21.155Z,0.21
2023-01-20T00:13:21.124Z,0.19
2023-01-20T00:14:21.117Z,0.21
2023-01-20T00:15:21.110Z,0.22
2023-01-20T00:16:21.138Z,0.19
2023-01-20T00:17:21.090Z,0.18
2023-01-20T00:18:21.091Z,0.11
2023-01-20T00:19:21.068Z,0.15
2023-01-20T00:20:21.043Z,0.12
2023-01-20T00:21:21.039Z,0.15
2023-01-20T00:22:21.042Z,0.11
2023-01-20T00:23:21.009Z,0.10
2023-01-20T00:24:20.997Z,0.12
2023-01-20T00:25:20.977Z,0.10
2023-01-20T00:26:20.981Z,0.12
2023-01-20T00:27:20.972Z,0.15
2023-01-20T00:28:20.941Z,0.18
2023-01-20T00:29:20.928Z,0.21
2023-01-20T00:30:20.934Z,0.28
2023-01-20T00:31:20.960Z,0.25
2023-01-20T00:32:20.901Z,0.25
2023-01-20T00:33:20.885Z,0.19
2023-01-20T00:34:20.881Z,0.19
2023-01-20T00:35:20.852Z,0.15
2023-01-20T00:36:20.854Z,0.18
2023-01-20T00:37:20.853Z,0.12
2023-01-20T00:38:20.814Z,0.11
2023-01-20T00:39:20.807Z,0.12
2023-01-20T00:40:20.785Z,0.08
2023-01-20T00:41:20.778Z,0.10
2023-01-20T00:42:20.774Z,0.07
2023-01-20T00:43:20.752Z,0.05
2023-01-20T00:44:20.735Z,0.05
2023-01-20T00:45:20.730Z,0.05
2023-01-20T00:46:20.711Z,0.00
2023-01-20T00:47:20.727Z,-0.03
2023-01-20T00:48:20.705Z,0.00
2023-01-20T00:49:20.675Z,-0.02
2023-01-20T00:50:20.703Z,-0.06
2023-01-20T00:51:20.652Z,-0.10
2023-01-20T00:52:20.655Z,-0.11
2023-01-20T00:53:20.624Z,-0.08
2023-01-20T00:54:20.611Z,-0.13
2023-01-20T00:55:20.598Z,-0.08
2023-01-20T00:56:20.587Z,-0.11
2023-01-20T00:57:20.574Z,-0.10
2023-01-20T00:58:20.579Z,-0.15
2023-01-20T00:59:20.556Z,-0.17
2023-01-20T01:00:20.558Z,-0.20
2023-01-20T01:01:20.622Z,-0.25
2023-01-20T01:02:20.546Z,-0.26
2023-01-20T01:03:20.513Z,-0.32
2023-01-20T01:04:20.485Z,-0.29
2023-01-20T01:05:20.479Z,-0.31
2023-01-20T01:06:20.482Z,-0.28
2023-01-20T01:07:20.451Z,-0.23
2023-01-20T01:08:20.452Z,-0.23
2023-01-20T01:09:20.423Z,-0.20
2023-01-20T01:10:20.409Z,-0.23
2023-01-20T01:11:20.398Z,-0.21
2023-01-20T01:12:20.385Z,-0.26
2023-01-20T01:13:20.384Z,-0.28
2023-01-20T01:14:20.358Z,-0.31
2023-01-20T01:15:20.347Z,-0.31
2023-01-20T01:16:20.383Z,-0.32
2023-01-20T01:17:20.320Z,-0.26
2023-01-20T01:18:20.320Z,-0.26
2023-01-20T01:19:20.295Z,-0.20
2023-01-20T01:20:20.278Z,-0.20
2023-01-20T01:21:20.268Z,-0.28
2023-01-20T01:22:20.274Z,-0.25
2023-01-20T01:23:20.267Z,-0.23
2023-01-20T01:24:20.236Z,-0.17
2023-01-20T01:25:20.226Z,-0.14
2023-01-20T01:26:20.208Z,-0.07
2023-01-20T01:27:20.192Z,-0.06
2023-01-20T01:28:20.209Z,0.00
2023-01-20T01:29:20.168Z,0.00
2023-01-20T01:30:20.242Z,0.01
2023-01-20T01:31:20.230Z,0.00
2023-01-20T01:32:20.127Z,-0.02
2023-01-20T01:33:20.135Z,0.00
2023-01-20T01:34:20.102Z,-0.02
2023-01-20T01:35:20.099Z,0.01
2023-01-20T01:36:20.083Z,0.05
2023-01-20T01:37:20.073Z,0.10
2023-01-20T01:38:20.087Z,0.11
2023-01-20T01:39:20.043Z,0.15
2023-01-20T01:40:20.032Z,0.18
2023-01-20T01:41:20.017Z,0.21
2023-01-20T01:42:20.012Z,0.18
2023-01-20T01:43:20.015Z,0.19
2023-01-20T01:44:19.976Z,0.18
2023-01-20T01:45:19.967Z,0.16
2023-01-20T01:46:19.959Z,0.19
2023-01-20T01:47:19.942Z,0.19
2023-01-20T01:48:19.945Z,0.19
2023-01-20T01:49:19.922Z,0.19
2023-01-20T01:50:19.908Z,0.22
2023-01-20T01:51:19.931Z,0.22
2023-01-20T01:52:19.878Z,0.18
2023-01-20T01:53:19.888Z,0.16
2023-01-20T01:54:19.876Z,0.16
2023-01-20T01:55:19.855Z,0.12
2023-01-20T01:56:19.833Z,0.12
2023-01-20T01:57:19.824Z,0.16
2023-01-20T01:58:19.820Z,0.16
2023-01-20T01:59:19.793Z,0.19
2023-01-20T02:00:19.785Z,0.28
2023-01-20T02:01:19.901Z,0.31
2023-01-20T02:02:22.709Z,0.29
2023-01-20T02:03:19.755Z,0.25
2023-01-20T02:04:19.736Z,0.18
2023-01-20T02:05:19.717Z,0.18
2023-01-20T02:06:19.707Z,0.22
2023-01-20T02:07:19.695Z,0.22
2023-01-20T02:08:19.694Z,0.26
2023-01-20T02:09:19.673Z,0.34
2023-01-20T02:10:19.681Z,0.37
2023-01-20T02:11:19.648Z,0.40
2023-01-20T02:12:19.632Z,0.41
2023-01-20T02:13:19.635Z,0.37
2023-01-20T02:14:19.605Z,0.39
2023-01-20T02:15:19.593Z,0.46
2023-01-20T02:16:19.631Z,0.47
2023-01-20T02:17:19.581Z,0.55
2023-01-20T02:18:19.573Z,0.55
2023-01-20T02:19:19.544Z,0.60
2023-01-20T02:20:19.545Z,0.63
2023-01-20T02:21:19.518Z,0.69
2023-01-20T02:22:19.506Z,0.70
2023-01-20T02:23:19.511Z,0.77
2023-01-20T02:24:19.480Z,0.80
2023-01-20T02:25:19.475Z,0.81
2023-01-20T02:26:19.471Z,0.83
2023-01-20T02:27:19.450Z,0.81
2023-01-20T02:28:19.447Z,0.81
2023-01-20T02:29:19.422Z,0.84
2023-01-20T02:30:19.428Z,0.83
2023-01-20T02:31:19.453Z,0.80
2023-01-20T02:32:19.379Z,0.68
2023-01-20T02:33:19.385Z,0.52
2023-01-20T02:34:19.353Z,0.41
2023-01-20T02:35:19.346Z,0.44
2023-01-20T02:36:19.329Z,0.47
2023-01-20T02:37:19.318Z,0.49
2023-01-20T02:38:19.330Z,0.49
2023-01-20T02:39:27.273Z,0.55
2023-01-20T02:40:20.287Z,0.58
2023-01-20T02:41:19.276Z,0.46
2023-01-20T02:42:19.298Z,0.46
2023-01-20T02:43:19.260Z,0.34
2023-01-20T02:44:19.234Z,0.31
2023-01-20T02:45:19.220Z,0.32
2023-01-20T02:46:19.206Z,0.32
2023-01-20T02:47:19.197Z,0.34
2023-01-20T02:48:19.197Z,0.37
2023-01-20T02:49:19.167Z,0.40
2023-01-20T02:50:19.153Z,0.44
2023-01-20T02:51:19.143Z,0.52
2023-01-20T02:52:19.135Z,0.56
2023-01-20T02:53:19.130Z,0.55
2023-01-20T02:54:19.108Z,0.55
2023-01-20T02:55:19.093Z,0.44
2023-01-20T02:56:19.079Z,0.40
2023-01-20T02:57:19.074Z,0.41
2023-01-20T02:58:19.092Z,0.46
2023-01-20T02:59:19.053Z,0.47
2023-01-20T03:00:19.035Z,0.46
2023-01-20T03:01:19.079Z,0.52
2023-01-20T03:02:19.001Z,0.58
2023-01-20T03:03:19.004Z,0.52
2023-01-20T03:04:19.002Z,0.44
2023-01-20T03:05:18.965Z,0.47
2023-01-20T03:06:18.953Z,0.46
2023-01-20T03:07:18.943Z,0.46
2023-01-20T03:08:18.925Z,0.49
2023-01-20T03:09:18.931Z,0.56
2023-01-20T03:10:18.902Z,0.63
2023-01-20T03:11:18.894Z,0.65
2023-01-20T03:12:18.878Z,0.63
2023-01-20T03:13:18.868Z,0.63
2023-01-20T03:14:18.888Z,0.58
2023-01-20T03:15:18.845Z,0.60
2023-01-20T03:16:18.923Z,0.60
2023-01-20T03:17:18.813Z,0.65
2023-01-20T03:18:18.802Z,0.62
2023-01-20T03:19:20.390Z,0.65
2023-01-20T03:20:18.781Z,0.65
2023-01-20T03:21:18.769Z,0.69
2023-01-20T03:22:18.754Z,0.77
2023-01-20T03:23:18.739Z,0.74
2023-01-20T03:24:18.767Z,0.70
2023-01-20T03:25:18.725Z,0.70
2023-01-20T03:26:18.711Z,0.78
2023-01-20T03:27:18.688Z,0.81
2023-01-20T03:28:18.676Z,0.84
2023-01-20T03:29:18.685Z,0.83
2023-01-20T03:30:18.676Z,0.87
2023-01-20T03:31:18.768Z,0.86
2023-01-20T03:32:18.629Z,0.86
2023-01-20T03:33:18.615Z,0.84
2023-01-20T03:34:18.615Z,0.81
2023-01-20T03:35:18.590Z,0.78
2023-01-20T03:36:18.587Z,0.77
2023-01-20T03:37:18.568Z,0.87
2023-01-20T03:38:18.553Z,0.92
2023-01-20T03:39:18.550Z,0.88
2023-01-20T03:40:18.528Z,0.91
2023-01-20T03:41:18.514Z,0.94
2023-01-20T03:42:18.507Z,0.92
2023-01-20T03:43:18.494Z,0.96
2023-01-20T03:44:18.491Z,0.98
2023-01-20T03:45:18.471Z,0.96
2023-01-20T03:46:18.480Z,0.81
2023-01-20T03:47:18.446Z,0.68
2023-01-20T03:48:18.448Z,0.55
2023-01-20T03:49:18.457Z,0.50
2023-01-20T03:50:18.411Z,0.47
2023-01-20T03:51:18.395Z,0.47
2023-01-20T03:52:18.376Z,0.56
2023-01-20T03:53:18.371Z,0.63
2023-01-20T03:54:18.367Z,0.62
2023-01-20T03:55:18.362Z,0.66
2023-01-20T03:56:18.329Z,0.60
2023-01-20T03:57:18.329Z,0.52
2023-01-20T03:58:18.305Z,0.40
2023-01-20T03:59:18.315Z,0.37
2023-01-20T04:00:18.279Z,0.36
2023-01-20T04:01:19.201Z,0.29
2023-01-20T04:02:18.448Z,0.29
2023-01-20T04:03:18.260Z,0.23
2023-01-20T04:04:18.251Z,0.23
2023-01-20T04:05:18.218Z,0.26
2023-01-20T04:06:18.203Z,0.29
2023-01-20T04:07:18.206Z,0.29
2023-01-20T04:08:18.186Z,0.28
2023-01-20T04:09:18.192Z,0.29
2023-01-20T04:10:18.154Z,0.31
2023-01-20T04:11:18.139Z,0.31
2023-01-20T04:12:18.133Z,0.34
2023-01-20T04:13:18.119Z,0.36
2023-01-20T04:14:18.119Z,0.29
2023-01-20T04:15:18.182Z,0.26
2023-01-20T04:16:18.077Z,0.28
2023-01-20T04:17:18.067Z,0.32
2023-01-20T04:18:18.080Z,0.26
2023-01-20T04:19:18.065Z,0.29
2023-01-20T04:20:18.027Z,0.26
2023-01-20T04:21:18.016Z,0.25
2023-01-20T04:22:18.003Z,0.16
2023-01-20T04:23:17.987Z,0.19
2023-01-20T04:24:17.999Z,0.15
2023-01-20T04:25:17.959Z,0.11
2023-01-20T04:26:17.950Z,0.18
2023-01-20T04:27:17.937Z,0.23
2023-01-20T04:28:17.927Z,0.18
2023-01-20T04:29:17.913Z,0.19
2023-01-20T04:30:18.054Z,0.22
2023-01-20T04:31:29.480Z,0.19
2023-01-20T04:32:17.879Z,0.23
2023-01-20T04:33:17.868Z,0.29
2023-01-20T04:34:17.875Z,0.37
2023-01-20T04:35:17.859Z,0.44
2023-01-20T04:36:17.828Z,0.43
2023-01-20T04:37:17.809Z,0.43
2023-01-20T04:38:17.804Z,0.46
2023-01-20T04:39:17.793Z,0.40
2023-01-20T04:40:17.799Z,0.37
2023-01-20T04:41:17.772Z,0.37
2023-01-20T04:42:17.749Z,0.28
2023-01-20T04:43:17.741Z,0.28
2023-01-20T04:44:17.727Z,0.28
2023-01-20T04:45:17.912Z,0.25
2023-01-20T04:46:17.756Z,0.18
2023-01-20T04:47:17.694Z,0.22
2023-01-20T04:48:17.680Z,0.18
2023-01-20T04:49:17.675Z,0.19
2023-01-20T04:50:18.683Z,0.16
2023-01-20T04:51:17.639Z,0.18
2023-01-20T04:52:17.633Z,0.18
2023-01-20T04:53:17.616Z,0.12
2023-01-20T04:54:17.607Z,0.21
2023-01-20T04:55:17.810Z,0.25
2023-01-20T04:56:17.582Z,0.25
2023-01-20T04:57:17.566Z,0.25
2023-01-20T04:58:17.554Z,0.23
2023-01-20T04:59:17.541Z,0.25
2023-01-20T05:00:17.540Z,0.26
2023-01-20T05:01:17.606Z,0.29
2023-01-20T05:02:17.633Z,0.28
2023-01-20T05:03:17.486Z,0.29
2023-01-20T05:04:17.475Z,0.31
2023-01-20T05:05:17.874Z,0.39
2023-01-20T05:06:17.495Z,0.39
2023-01-20T05:07:17.439Z,0.43
2023-01-20T05:08:17.429Z,0.47
2023-01-20T05:09:17.412Z,0.47
2023-01-20T05:10:17.418Z,0.47
2023-01-20T05:11:17.389Z,0.44
2023-01-20T05:12:17.376Z,0.44
2023-01-20T05:13:17.362Z,0.47
2023-01-20T05:14:17.347Z,0.52
2023-01-20T05:15:17.574Z,0.55
2023-01-20T05:16:17.405Z,0.58
2023-01-20T05:17:17.308Z,0.49
2023-01-20T05:18:17.302Z,0.47
2023-01-20T05:19:17.288Z,0.41
2023-01-20T05:20:17.294Z,0.43
2023-01-20T05:21:17.261Z,0.49
2023-01-20T05:22:17.277Z,0.56
2023-01-20T05:23:17.235Z,0.60
2023-01-20T05:24:17.227Z,0.62
2023-01-20T05:25:17.338Z,0.58
2023-01-20T05:26:17.197Z,0.62
2023-01-20T05:27:17.215Z,0.68
2023-01-20T05:28:17.178Z,0.66
2023-01-20T05:29:17.171Z,0.55
2023-01-20T05:30:17.179Z,0.50
2023-01-20T05:31:17.272Z,0.50
2023-01-20T05:32:17.128Z,0.43
2023-01-20T05:33:17.129Z,0.44
2023-01-20T05:34:17.099Z,0.47
2023-01-20T05:35:17.437Z,0.49
2023-01-20T05:36:17.081Z,0.50
2023-01-20T05:37:17.067Z,0.52
2023-01-20T05:38:17.073Z,0.59
2023-01-20T05:39:17.053Z,0.58
2023-01-20T05:40:17.059Z,0.55
2023-01-20T05:41:17.011Z,0.60
2023-01-20T05:42:17.011Z,0.59
2023-01-20T05:43:16.989Z,0.58
2023-01-20T05:44:16.983Z,0.55
2023-01-20T05:45:17.484Z,0.47
2023-01-20T05:46:17.014Z,0.58
2023-01-20T05:47:16.936Z,0.56
2023-01-20T05:48:16.925Z,0.56
2023-01-20T05:49:16.917Z,0.52
2023-01-20T05:50:16.908Z,0.56
2023-01-20T05:51:16.903Z,0.52
2023-01-20T05:52:16.908Z,0.55
2023-01-20T05:53:16.864Z,0.52
2023-01-20T05:54:16.883Z,0.62
2023-01-20T05:55:17.065Z,0.66
2023-01-20T05:56:16.839Z,0.70
2023-01-20T05:57:16.811Z,0.70
2023-01-20T05:58:16.801Z,0.78
2023-01-20T05:59:16.868Z,0.81
2023-01-20T06:00:16.773Z,0.83
2023-01-20T06:01:16.799Z,0.86
2023-01-20T06:02:16.745Z,0.86
2023-01-20T06:03:16.741Z,0.87
2023-01-20T06:04:16.740Z,0.87
2023-01-20T06:05:17.118Z,0.84
2023-01-20T06:06:16.712Z,0.87
2023-01-20T06:07:16.700Z,0.83
2023-01-20T06:08:16.677Z,0.86
2023-01-20T06:09:16.664Z,0.91
2023-01-20T06:10:16.671Z,0.91
2023-01-20T06:11:16.648Z,0.91
2023-01-20T06:12:16.620Z,0.92
2023-01-20T06:13:16.613Z,0.98
2023-01-20T06:14:16.605Z,0.95
2023-01-20T06:15:16.925Z,0.95
2023-01-20T06:16:16.657Z,0.84
2023-01-20T06:17:16.573Z,0.80
2023-01-20T06:18:16.552Z,0.78
2023-01-20T06:19:16.540Z,0.78
2023-01-20T06:20:16.529Z,0.70
2023-01-20T06:21:16.525Z,0.59
2023-01-20T06:22:16.518Z,0.58
2023-01-20T06:23:16.495Z,0.49
2023-01-20T06:24:16.472Z,0.43
2023-01-20T06:25:16.860Z,0.41
2023-01-20T06:26:16.510Z,0.43
2023-01-20T06:27:16.445Z,0.50
2023-01-20T06:28:16.428Z,0.56
2023-01-20T06:29:16.411Z,0.60
2023-01-20T06:30:16.405Z,0.58
2023-01-20T06:31:16.512Z,0.58
2023-01-20T06:32:16.382Z,0.47
2023-01-20T06:33:16.363Z,0.44
2023-01-20T06:34:16.378Z,0.40
2023-01-20T06:35:16.808Z,0.36
2023-01-20T06:36:16.334Z,0.40
2023-01-20T06:37:16.308Z,0.36
2023-01-20T06:38:16.295Z,0.34
2023-01-20T06:39:16.285Z,0.39
2023-01-20T06:40:16.275Z,0.36
2023-01-20T06:41:16.286Z,0.37
2023-01-20T06:42:16.279Z,0.43
2023-01-20T06:43:16.242Z,0.41
2023-01-20T06:44:16.223Z,0.44
2023-01-20T06:45:16.586Z,0.40
2023-01-20T06:46:16.277Z,0.46
2023-01-20T06:47:16.187Z,0.50
2023-01-20T06:48:16.191Z,0.55
2023-01-20T06:49:16.158Z,0.56
2023-01-20T06:50:16.173Z,0.58
2023-01-20T06:51:16.157Z,0.62
2023-01-20T06:52:16.135Z,0.59
2023-01-20T06:53:16.128Z,0.56
2023-01-20T06:54:16.103Z,0.47
2023-01-20T06:55:16.573Z,0.46
2023-01-20T06:56:16.094Z,0.37
2023-01-20T06:57:16.059Z,0.41
2023-01-20T06:58:16.068Z,0.43
2023-01-20T06:59:16.035Z,0.40
2023-01-20T07:00:16.040Z,0.44
2023-01-20T07:01:16.163Z,0.44
2023-01-20T07:02:16.177Z,0.40
2023-01-20T07:03:15.986Z,0.40
2023-01-20T07:04:15.976Z,0.37
2023-01-20T07:05:16.256Z,0.37
2023-01-20T07:06:15.994Z,0.36
2023-01-20T07:07:15.938Z,0.39
2023-01-20T07:08:15.927Z,0.41
2023-01-20T07:09:15.914Z,0.39
2023-01-20T07:10:15.899Z,0.37
2023-01-20T07:11:15.897Z,0.32
2023-01-20T07:12:15.887Z,0.39
2023-01-20T07:13:15.857Z,0.41
2023-01-20T07:14:15.869Z,0.41
2023-01-20T07:15:16.186Z,0.40
2023-01-20T07:16:16.222Z,0.47
2023-01-20T07:17:15.807Z,0.46
2023-01-20T07:18:15.804Z,0.49
2023-01-20T07:19:15.781Z,0.52
2023-01-20T07:20:15.772Z,0.52
2023-01-20T07:21:15.775Z,0.55
2023-01-20T07:22:15.747Z,0.50
2023-01-20T07:23:15.729Z,0.52
2023-01-20T07:24:15.723Z,0.58
2023-01-20T07:25:15.986Z,0.52
2023-01-20T07:26:15.710Z,0.62
2023-01-20T07:27:15.678Z,0.62
2023-01-20T07:28:15.671Z,0.65
2023-01-20T07:29:17.858Z,0.69
2023-01-20T07:30:15.668Z,0.63
2023-01-20T07:31:15.684Z,0.58
2023-01-20T07:32:15.638Z,0.56
2023-01-20T07:33:15.611Z,0.49
2023-01-20T07:34:15.594Z,0.49
2023-01-20T07:35:15.868Z,0.49
2023-01-20T07:36:15.580Z,0.46
2023-01-20T07:37:15.568Z,0.47
2023-01-20T07:38:15.554Z,0.47
2023-01-20T07:39:15.545Z,0.46
2023-01-20T07:40:15.525Z,0.46
2023-01-20T07:41:15.506Z,0.44
2023-01-20T07:42:15.511Z,0.43
2023-01-20T07:43:15.490Z,0.44
2023-01-20T07:44:15.469Z,0.39
2023-01-20T07:45:15.742Z,0.40
2023-01-20T07:46:15.474Z,0.39
2023-01-20T07:47:15.454Z,0.40
2023-01-20T07:48:15.417Z,0.37
2023-01-20T07:49:15.412Z,0.40
2023-01-20T07:50:15.397Z,0.37
2023-01-20T07:51:15.384Z,0.34
2023-01-20T07:52:15.398Z,0.39
2023-01-20T07:53:15.358Z,0.41
2023-01-20T07:54:15.348Z,0.37
2023-01-20T07:55:15.726Z,0.36
2023-01-20T07:56:15.335Z,0.37
2023-01-20T07:57:15.329Z,0.46
2023-01-20T07:58:15.294Z,0.52
2023-01-20T07:59:15.281Z,0.62
2023-01-20T08:00:15.269Z,0.65
2023-01-20T08:01:15.414Z,0.59
2023-01-20T08:02:15.283Z,0.60
2023-01-20T08:03:15.236Z,0.58
2023-01-20T08:04:15.221Z,0.66
2023-01-20T08:05:15.563Z,0.80
2023-01-20T08:06:15.200Z,0.81
2023-01-20T08:07:15.195Z,0.81
2023-01-20T08:08:15.167Z,0.68
2023-01-20T08:09:15.154Z,0.69
2023-01-20T08:10:15.182Z,0.70
2023-01-20T08:11:15.130Z,0.77
2023-01-20T08:12:15.130Z,0.81
2023-01-20T08:13:15.107Z,0.88
2023-01-20T08:14:15.095Z,0.70
2023-01-20T08:15:15.363Z,0.78
2023-01-20T08:16:15.124Z,0.81
2023-01-20T08:17:15.109Z,0.80
2023-01-20T08:18:15.065Z,0.81
2023-01-20T08:19:15.028Z,0.84
2023-01-20T08:20:15.022Z,0.92
2023-01-20T08:21:15.002Z,0.95
2023-01-20T08:22:15.007Z,0.91
2023-01-20T08:23:14.989Z,0.87
2023-01-20T08:24:14.963Z,0.91
2023-01-20T08:25:15.179Z,0.86
2023-01-20T08:26:14.942Z,0.87
2023-01-20T08:27:14.938Z,0.87
2023-01-20T08:28:14.924Z,0.91
2023-01-20T08:29:14.904Z,0.86
2023-01-20T08:30:14.892Z,0.94
2023-01-20T08:31:15.105Z,0.94
2023-01-20T08:32:14.888Z,0.95
2023-01-20T08:33:14.860Z,0.96
2023-01-20T08:34:14.865Z,1.02
2023-01-20T08:35:15.062Z,1.06
2023-01-20T08:36:14.816Z,1.19
2023-01-20T08:37:14.824Z,1.28
2023-01-20T08:38:14.873Z,1.40
2023-01-20T08:39:14.816Z,1.49
2023-01-20T08:40:14.816Z,1.56
2023-01-20T08:41:14.755Z,1.71
2023-01-20T08:42:14.750Z,1.66
2023-01-20T08:43:14.731Z,1.76
2023-01-20T08:44:14.718Z,1.84
2023-01-20T08:45:15.091Z,1.88
2023-01-20T08:46:14.823Z,1.92
2023-01-20T08:47:14.698Z,2.02
2023-01-20T08:48:14.663Z,2.04
2023-01-20T08:49:14.647Z,1.99
2023-01-20T08:50:14.672Z,1.84
2023-01-20T08:51:14.679Z,1.74
2023-01-20T08:52:14.640Z,1.52
2023-01-20T08:53:14.600Z,1.38
2023-01-20T08:54:14.603Z,1.32
2023-01-20T08:55:14.861Z,1.28
2023-01-20T08:56:14.561Z,1.32
2023-01-20T08:57:14.546Z,1.34
2023-01-20T08:58:14.552Z,1.38
2023-01-20T08:59:14.532Z,1.41
2023-01-20T09:00:14.515Z,1.42
2023-01-20T09:01:14.544Z,1.37
2023-01-20T09:02:14.516Z,1.35
2023-01-20T09:03:14.485Z,1.34
2023-01-20T09:04:14.461Z,1.35
2023-01-20T09:05:14.798Z,1.45
2023-01-20T09:06:14.500Z,1.48
2023-01-20T09:07:14.437Z,1.52
2023-01-20T09:08:14.426Z,1.49
2023-01-20T09:09:14.406Z,1.52
2023-01-20T09:10:14.388Z,1.44
2023-01-20T09:11:14.414Z,1.32
2023-01-20T09:12:14.358Z,1.35
2023-01-20T09:13:14.370Z,1.42
2023-01-20T09:14:14.337Z,1.52
2023-01-20T09:15:14.587Z,1.55
2023-01-20T09:16:14.334Z,1.55
2023-01-20T09:17:14.294Z,1.58
2023-01-20T09:18:14.296Z,1.59
2023-01-20T09:19:14.275Z,1.58
2023-01-20T09:20:14.274Z,1.68
2023-01-20T09:21:14.274Z,1.76
2023-01-20T09:22:16.503Z,1.78
2023-01-20T09:23:14.244Z,1.78
2023-01-20T09:24:14.207Z,1.70
2023-01-20T09:25:14.618Z,1.62
2023-01-20T09:26:19.723Z,1.49
2023-01-20T09:27:14.171Z,1.48
2023-01-20T09:28:14.196Z,1.49
2023-01-20T09:29:14.156Z,1.49
2023-01-20T09:30:14.130Z,1.45
2023-01-20T09:31:14.288Z,1.45
2023-01-20T09:32:14.111Z,1.52
2023-01-20T09:33:14.122Z,1.62
2023-01-20T09:34:15.390Z,1.68
2023-01-20T09:35:14.558Z,1.76
2023-01-20T09:36:14.058Z,1.81
2023-01-20T09:37:14.043Z,1.88
2023-01-20T09:38:14.065Z,1.91
2023-01-20T09:39:14.017Z,1.99
2023-01-20T09:40:14.347Z,2.02
2023-01-20T09:41:13.994Z,2.02
2023-01-20T09:42:13.982Z,1.97
2023-01-20T09:43:13.979Z,1.94
2023-01-20T09:44:13.955Z,2.04
2023-01-20T09:45:14.419Z,2.08
2023-01-20T09:46:13.981Z,2.15
2023-01-20T09:47:13.928Z,2.15
2023-01-20T09:48:13.911Z,2.02
2023-01-20T09:49:13.897Z,1.94
2023-01-20T09:50:14.352Z,2.02
2023-01-20T09:51:13.867Z,2.11
2023-01-20T09:52:13.847Z,2.20
2023-01-20T09:53:13.852Z,1.94
2023-01-20T09:54:13.840Z,1.78
2023-01-20T09:55:13.821Z,1.67
2023-01-20T09:56:13.801Z,1.66
2023-01-20T09:57:13.784Z,1.77
2023-01-20T09:58:13.767Z,1.94
2023-01-20T09:59:13.773Z,2.00
2023-01-20T10:00:14.133Z,1.97
2023-01-20T10:01:13.781Z,1.87
2023-01-20T10:02:13.724Z,1.95
2023-01-20T10:03:13.712Z,1.97
2023-01-20T10:04:13.712Z,2.10
2023-01-20T10:05:13.769Z,2.06
2023-01-20T10:06:13.668Z,1.76
2023-01-20T10:07:13.660Z,1.66
2023-01-20T10:08:13.649Z,1.68
2023-01-20T10:09:13.652Z,1.87
2023-01-20T10:10:13.938Z,2.06
2023-01-20T10:11:13.672Z,2.53
2023-01-20T10:12:13.597Z,2.44
2023-01-20T10:13:13.587Z,2.97
2023-01-20T10:14:13.626Z,2.54
2023-01-20T10:15:13.561Z,2.31
2023-01-20T10:16:13.724Z,2.17
2023-01-20T10:17:13.541Z,2.36
2023-01-20T10:18:13.570Z,2.42
2023-01-20T10:19:13.522Z,2.33
2023-01-20T10:20:13.835Z,2.31
2023-01-20T10:21:13.483Z,2.39
2023-01-20T10:22:13.464Z,2.42
2023-01-20T10:23:13.456Z,2.54
2023-01-20T10:24:13.451Z,2.61
2023-01-20T10:25:13.439Z,2.56
2023-01-20T10:26:13.466Z,2.57
2023-01-20T10:27:13.405Z,2.49
2023-01-20T10:28:13.385Z,2.43
2023-01-20T10:29:13.393Z,2.47
2023-01-20T10:30:13.689Z,2.57
2023-01-20T10:31:13.493Z,2.49
2023-01-20T10:32:13.335Z,2.57
2023-01-20T10:33:13.327Z,3.05
2023-01-20T10:34:13.323Z,3.73
2023-01-20T10:35:13.705Z,4.53
2023-01-20T10:36:13.286Z,5.20
2023-01-20T10:37:13.274Z,6.36
2023-01-20T10:38:13.256Z,7.05
2023-01-20T10:39:13.269Z,7.63
2023-01-20T10:40:13.291Z,7.94
2023-01-20T10:41:15.593Z,8.44
2023-01-20T10:42:13.244Z,8.58
2023-01-20T10:43:13.215Z,8.28
2023-01-20T10:44:13.199Z,7.72
2023-01-20T10:45:13.789Z,7.28
2023-01-20T10:46:13.163Z,6.84
2023-01-20T10:47:13.735Z,6.54
2023-01-20T10:48:13.125Z,6.01
2023-01-20T10:49:13.143Z,5.59
2023-01-20T10:50:13.108Z,5.30
2023-01-20T10:51:13.091Z,5.14
2023-01-20T10:52:13.076Z,5.08
2023-01-20T10:53:13.674Z,4.96
2023-01-20T10:54:13.061Z,4.74
2023-01-20T10:55:13.396Z,4.67
2023-01-20T10:56:13.020Z,4.73
2023-01-20T10:57:13.014Z,4.73
2023-01-20T10:58:13.027Z,4.62
2023-01-20T10:59:13.011Z,4.42
2023-01-20T11:00:13.148Z,4.30
2023-01-20T11:01:12.962Z,4.19
2023-01-20T11:02:13.032Z,4.05
2023-01-20T11:03:12.976Z,4.01
2023-01-20T11:04:12.917Z,3.95
2023-01-20T11:05:12.921Z,4.04
2023-01-20T11:06:12.889Z,4.10
2023-01-20T11:07:12.882Z,4.16
2023-01-20T11:08:12.865Z,4.16
2023-01-20T11:09:12.852Z,4.20
2023-01-20T11:10:13.326Z,4.22
2023-01-20T11:11:12.828Z,4.24
2023-01-20T11:12:12.811Z,4.26
2023-01-20T11:13:12.799Z,4.31
2023-01-20T11:14:12.816Z,4.34
2023-01-20T11:15:12.792Z,4.24
2023-01-20T11:16:12.915Z,4.20
2023-01-20T11:17:12.751Z,4.14
2023-01-20T11:18:12.735Z,4.13
2023-01-20T11:19:12.721Z,4.08
2023-01-20T11:20:12.726Z,4.06
2023-01-20T11:21:12.695Z,4.08
2023-01-20T11:22:12.682Z,4.05
2023-01-20T11:23:12.676Z,4.06
2023-01-20T11:24:12.665Z,4.14
2023-01-20T11:25:12.671Z,4.13
2023-01-20T11:26:12.714Z,3.91
2023-01-20T11:27:12.619Z,3.77
2023-01-20T11:28:12.608Z,3.56
2023-01-20T11:29:12.602Z,3.47
2023-01-20T11:30:12.675Z,3.44
2023-01-20T11:31:12.689Z,3.26
2023-01-20T11:32:12.557Z,3.22
2023-01-20T11:33:12.568Z,3.37
2023-01-20T11:34:12.550Z,3.69
2023-01-20T11:35:12.776Z,3.63
2023-01-20T11:36:12.506Z,3.78
2023-01-20T11:37:12.498Z,4.17
2023-01-20T11:38:12.477Z,4.84
2023-01-20T11:39:12.469Z,5.86
2023-01-20T11:40:12.573Z,6.54
2023-01-20T11:41:12.440Z,6.22
2023-01-20T11:42:12.434Z,6.14
2023-01-20T11:43:12.411Z,5.20
2023-01-20T11:44:12.397Z,5.23
2023-01-20T11:45:21.177Z,5.64
2023-01-20T11:46:12.593Z,5.05
2023-01-20T11:47:12.363Z,4.82
2023-01-20T11:48:14.078Z,4.63
2023-01-20T11:49:12.347Z,4.45
2023-01-20T11:50:12.777Z,4.37
2023-01-20T11:51:12.314Z,4.60
2023-01-20T11:52:12.293Z,4.86
2023-01-20T11:53:12.280Z,4.74
2023-01-20T11:54:12.266Z,4.53
2023-01-20T11:55:12.271Z,4.82
2023-01-20T11:56:12.241Z,5.62
2023-01-20T11:57:12.232Z,6.33
2023-01-20T11:58:12.219Z,6.77
2023-01-20T11:59:12.200Z,7.57
2023-01-20T12:00:12.224Z,8.19
2023-01-20T12:01:12.179Z,8.44
2023-01-20T12:02:12.254Z,9.18
2023-01-20T12:03:12.154Z,9.97
2023-01-20T12:04:12.156Z,10.31
2023-01-20T12:05:12.144Z,10.49
2023-01-20T12:06:12.112Z,10.40
2023-01-20T12:07:12.102Z,10.33
2023-01-20T12:08:12.088Z,10.84
2023-01-20T12:09:12.079Z,11.35
2023-01-20T12:10:12.073Z,11.00
2023-01-20T12:11:12.043Z,10.12
2023-01-20T12:12:12.031Z,9.51
2023-01-20T12:13:12.019Z,8.61
2023-01-20T12:14:12.005Z,8.24
2023-01-20T12:15:11.994Z,7.87
2023-01-20T12:16:12.005Z,8.10
2023-01-20T12:17:11.966Z,8.74
2023-01-20T12:18:11.975Z,9.58
2023-01-20T12:19:11.948Z,9.84
2023-01-20T12:20:11.945Z,10.26
2023-01-20T12:21:11.950Z,10.78
2023-01-20T12:22:11.906Z,10.44
2023-01-20T12:23:11.886Z,10.56
2023-01-20T12:24:11.897Z,10.35
2023-01-20T12:25:11.867Z,10.44
2023-01-20T12:26:11.860Z,10.26
2023-01-20T12:27:11.833Z,9.65
2023-01-20T12:28:11.820Z,8.94
2023-01-20T12:29:11.809Z,8.09
2023-01-20T12:30:11.794Z,7.39
2023-01-20T12:31:11.828Z,6.78
2023-01-20T12:32:11.780Z,6.38
2023-01-20T12:33:11.758Z,6.14
2023-01-20T12:34:11.759Z,6.12
2023-01-20T12:35:11.730Z,5.93
2023-01-20T12:36:11.733Z,5.72
2023-01-20T12:37:11.708Z,5.54
2023-01-20T12:38:11.692Z,5.51
2023-01-20T12:39:11.682Z,5.33
2023-01-20T12:40:11.666Z,5.23
2023-01-20T12:41:11.668Z,5.05
2023-01-20T12:42:11.640Z,4.80
2023-01-20T12:43:11.626Z,4.56
2023-01-20T12:44:11.612Z,4.31
2023-01-20T12:45:11.604Z,4.10
2023-01-20T12:46:11.751Z,4.05
2023-01-20T12:47:11.577Z,3.94
2023-01-20T12:48:11.569Z,3.91
2023-01-20T12:49:11.563Z,3.96
2023-01-20T12:50:11.556Z,3.91
2023-01-20T12:51:11.545Z,3.63
2023-01-20T12:52:11.513Z,3.23
2023-01-20T12:53:11.495Z,3.11
2023-01-20T12:54:11.488Z,3.19
2023-01-20T12:55:11.477Z,3.10
2023-01-20T12:56:11.515Z,3.23
2023-01-20T12:57:11.440Z,3.34
2023-01-20T12:58:11.430Z,3.50
2023-01-20T12:59:11.417Z,3.51
2023-01-20T13:00:11.408Z,3.36
2023-01-20T13:01:11.448Z,3.36
2023-01-20T13:02:11.380Z,3.59
2023-01-20T13:03:11.390Z,3.88
2023-01-20T13:04:11.367Z,3.77
2023-01-20T13:05:11.342Z,3.83
2023-01-20T13:06:11.365Z,3.96
2023-01-20T13:07:11.313Z,4.73
2023-01-20T13:08:11.301Z,6.11
2023-01-20T13:09:11.285Z,6.89
2023-01-20T13:10:11.271Z,7.66
2023-01-20T13:11:11.277Z,8.67
2023-01-20T13:12:11.255Z,8.85
2023-01-20T13:13:11.267Z,8.71
2023-01-20T13:14:11.233Z,9.06
2023-01-20T13:15:11.218Z,8.67
2023-01-20T13:16:11.209Z,8.46